createdAt,value
2023-03-29T00:02:29.605Z,-2.00
2023-03-29T00:04:57.309Z,-1.97
2023-03-29T00:07:25.514Z,-2.00
2023-03-29T00:09:52.572Z,-2.00
2023-03-29T00:12:19.709Z,-2.01
2023-03-29T00:14:46.759Z,-2.07
2023-03-29T00:17:13.803Z,-2.10
2023-03-29T00:19:42.787Z,-2.14
2023-03-29T00:22:09.750Z,-2.16
2023-03-29T00:24:36.823Z,-2.23
2023-03-29T00:27:04.066Z,-2.29
2023-03-29T00:29:32.036Z,-2.33
2023-03-29T00:31:59.002Z,-2.40
2023-03-29T00:34:31.368Z,-2.43
2023-03-29T00:36:58.516Z,-2.44
2023-03-29T00:39:27.444Z,-2.49
2023-03-29T00:41:55.488Z,-2.54
2023-03-29T00:44:41.370Z,-2.57
2023-03-29T00:47:08.322Z,-2.58
2023-03-29T00:49:35.579Z,-2.58
2023-03-29T00:52:03.146Z,-2.62
2023-03-29T00:54:30.298Z,-2.70
2023-03-29T00:56:57.766Z,-2.74
2023-03-29T00:59:28.030Z,-2.77
2023-03-29T01:02:01.837Z,-2.81
2023-03-29T01:04:32.390Z,-2.86
2023-03-29T01:07:02.381Z,-2.88
2023-03-29T01:09:30.739Z,-2.88
2023-03-29T01:12:01.265Z,-2.89
2023-03-29T01:14:52.163Z,-2.93
2023-03-29T01:17:21.281Z,-2.94
2023-03-29T01:19:53.499Z,-2.94
2023-03-29T01:22:25.539Z,-2.93
2023-03-29T01:24:52.589Z,-2.91
2023-03-29T01:27:22.370Z,-2.89
2023-03-29T01:29:53.641Z,-2.91
2023-03-29T01:32:27.481Z,-2.91
2023-03-29T01:34:58.266Z,-2.90
2023-03-29T01:37:33.915Z,-2.89
2023-03-29T01:40:01.071Z,-2.83
2023-03-29T01:42:37.846Z,-2.77
2023-03-29T01:45:05.405Z,-2.73
2023-03-29T01:47:46.196Z,-2.69
2023-03-29T01:50:16.237Z,-2.67
2023-03-29T01:52:46.319Z,-2.66
2023-03-29T01:55:18.003Z,-2.66
2023-03-29T01:57:46.402Z,-2.64
2023-03-29T02:00:18.740Z,-2.64
2023-03-29T02:02:46.900Z,-2.66
2023-03-29T02:05:15.705Z,-2.67
2023-03-29T02:07:45.543Z,-2.67
2023-03-29T02:10:14.004Z,-2.68
2023-03-29T02:12:41.993Z,-2.71
2023-03-29T02:15:13.840Z,-2.72
2023-03-29T02:17:41.340Z,-2.72
2023-03-29T02:20:14.756Z,-2.72
2023-03-29T02:22:45.269Z,-2.73
2023-03-29T02:25:12.491Z,-2.72
2023-03-29T02:27:39.785Z,-2.69
2023-03-29T02:30:08.509Z,-2.68
2023-03-29T02:32:56.290Z,-2.66
2023-03-29T02:35:35.825Z,-2.64
2023-03-29T02:38:04.232Z,-2.62
2023-03-29T02:40:32.890Z,-2.58
2023-03-29T02:43:00.953Z,-2.50
2023-03-29T02:45:28.728Z,-2.48
2023-03-29T02:48:01.014Z,-2.43
2023-03-29T02:50:32.515Z,-2.40
2023-03-29T02:53:02.170Z,-2.37
2023-03-29T02:55:34.288Z,-2.35
2023-03-29T02:58:07.646Z,-2.35
2023-03-29T03:00:37.857Z,-2.36
2023-03-29T03:03:06.450Z,-2.39
2023-03-29T03:05:33.805Z,-2.43
2023-03-29T03:08:00.961Z,-2.49
2023-03-29T03:10:27.919Z,-2.60
2023-03-29T03:12:55.073Z,-2.75
2023-03-29T03:15:22.326Z,-2.90
2023-03-29T03:17:49.460Z,-3.04
2023-03-29T03:20:17.046Z,-3.14
2023-03-29T03:22:48.394Z,-3.26
2023-03-29T03:25:16.367Z,-3.36
2023-03-29T03:27:43.418Z,-3.43
2023-03-29T03:30:11.047Z,-3.47
2023-03-29T03:33:02.328Z,-3.50
2023-03-29T03:35:56.475Z,-3.50
2023-03-29T03:38:23.614Z,-3.48
2023-03-29T03:40:56.396Z,-3.46
2023-03-29T03:43:23.579Z,-3.41
2023-03-29T03:45:51.658Z,-3.33
2023-03-29T03:48:22.685Z,-3.26
2023-03-29T03:50:56.581Z,-3.22
2023-03-29T03:53:24.759Z,-3.19
2023-03-29T03:56:15.858Z,-3.20
2023-03-29T03:59:01.645Z,-3.23
2023-03-29T04:01:31.031Z,-3.26
2023-03-29T04:04:12.667Z,-3.31
2023-03-29T04:06:42.472Z,-3.36
2023-03-29T04:09:30.788Z,-3.41
2023-03-29T04:12:10.736Z,-3.47
2023-03-29T04:14:38.707Z,-3.52
2023-03-29T04:17:09.239Z,-3.53
2023-03-29T04:19:53.077Z,-3.51
2023-03-29T04:22:20.132Z,-3.48
2023-03-29T04:24:47.192Z,-3.46
2023-03-29T04:27:37.060Z,-3.41
2023-03-29T04:30:09.456Z,-3.38
2023-03-29T04:32:57.395Z,-3.33
2023-03-29T04:35:25.137Z,-3.31
2023-03-29T04:37:54.132Z,-3.27
2023-03-29T04:40:21.897Z,-3.25
2023-03-29T04:42:59.651Z,-3.24
2023-03-29T04:45:26.805Z,-3.23
2023-03-29T04:48:05.798Z,-3.21
2023-03-29T04:50:36.004Z,-3.16
2023-03-29T04:53:03.160Z,-3.11
2023-03-29T04:55:30.318Z,-3.09
2023-03-29T04:58:02.287Z,-3.04
2023-03-29T05:00:34.552Z,-2.98
2023-03-29T05:03:09.554Z,-2.94
2023-03-29T05:05:38.687Z,-2.90
2023-03-29T05:08:06.766Z,-2.88
2023-03-29T05:10:41.594Z,-2.85
2023-03-29T05:13:09.161Z,-2.83
2023-03-29T05:15:36.733Z,-2.78
2023-03-29T05:18:04.720Z,-2.75
2023-03-29T05:20:31.877Z,-2.73
2023-03-29T05:23:00.034Z,-2.71
2023-03-29T05:25:48.488Z,-2.67
2023-03-29T05:28:15.627Z,-2.64
2023-03-29T05:30:42.887Z,-2.63
2023-03-29T05:33:17.929Z,-2.57
2023-03-29T05:35:45.835Z,-2.54
2023-03-29T05:38:13.358Z,-2.52
2023-03-29T05:40:41.022Z,-2.48
2023-03-29T05:43:27.314Z,-2.43
2023-03-29T05:45:55.555Z,-2.42
2023-03-29T05:48:24.409Z,-2.37
2023-03-29T05:50:53.078Z,-2.32
2023-03-29T05:53:21.359Z,-2.32
2023-03-29T05:55:48.977Z,-2.29
2023-03-29T05:58:19.664Z,-2.25
2023-03-29T06:00:50.717Z,-2.23
2023-03-29T06:03:29.320Z,-2.19
2023-03-29T06:05:59.352Z,-2.14
2023-03-29T06:08:27.444Z,-2.07
2023-03-29T06:11:05.542Z,-2.00
2023-03-29T06:14:04.685Z,-1.89
2023-03-29T06:16:32.008Z,-1.87
2023-03-29T06:18:59.033Z,-1.88
2023-03-29T06:21:26.502Z,-1.88
2023-03-29T06:23:54.020Z,-1.94
2023-03-29T06:26:21.526Z,-1.96
2023-03-29T06:28:51.919Z,-1.94
2023-03-29T06:31:20.431Z,-1.90
2023-03-29T06:33:49.626Z,-1.91
2023-03-29T06:36:39.102Z,-1.90
2023-03-29T06:39:06.113Z,-1.85
2023-03-29T06:41:59.941Z,-1.79
2023-03-29T06:44:54.071Z,-1.69
2023-03-29T06:47:23.784Z,-1.62
2023-03-29T06:49:50.696Z,-1.61
2023-03-29T06:52:30.636Z,-1.56
2023-03-29T06:54:57.552Z,-1.52
2023-03-29T06:57:24.887Z,-1.53
2023-03-29T06:59:52.686Z,-1.52
2023-03-29T07:02:26.174Z,-1.44
2023-03-29T07:05:02.041Z,-1.39
2023-03-29T07:07:52.958Z,-1.32
2023-03-29T07:10:33.947Z,-1.29
2023-03-29T07:13:23.953Z,-1.19
2023-03-29T07:15:51.858Z,-1.05
2023-03-29T07:18:21.927Z,-0.86
2023-03-29T07:20:49.158Z,-0.65
2023-03-29T07:23:17.546Z,-0.49
2023-03-29T07:25:44.759Z,-0.31
2023-03-29T07:28:12.150Z,-0.13
2023-03-29T07:30:39.187Z,-0.05
2023-03-29T07:33:14.276Z,-0.15
2023-03-29T07:35:50.365Z,-0.24
2023-03-29T07:38:18.079Z,-0.27
2023-03-29T07:40:48.406Z,-0.19
2023-03-29T07:43:33.929Z,0.03
2023-03-29T07:46:01.926Z,0.07
2023-03-29T07:48:29.652Z,0.12
2023-03-29T07:51:00.354Z,0.17
2023-03-29T07:53:31.724Z,0.18
2023-03-29T07:55:59.877Z,0.11
2023-03-29T07:58:46.089Z,0.13
2023-03-29T08:01:17.154Z,0.15
2023-03-29T08:04:01.453Z,0.21
2023-03-29T08:06:58.231Z,0.31
2023-03-29T08:09:31.574Z,0.23
2023-03-29T08:11:58.514Z,0.11
2023-03-29T08:14:31.120Z,-0.04
2023-03-29T08:17:04.084Z,-0.10
2023-03-29T08:19:31.686Z,-0.01
2023-03-29T08:22:06.124Z,0.31
2023-03-29T08:25:03.930Z,0.72
2023-03-29T08:27:34.268Z,1.18
2023-03-29T08:30:01.412Z,1.34
2023-03-29T08:32:28.836Z,1.40
2023-03-29T08:34:55.754Z,1.38
2023-03-29T08:37:27.588Z,1.30
2023-03-29T08:39:56.572Z,1.39
2023-03-29T08:43:02.585Z,1.48
2023-03-29T08:45:44.422Z,1.79
2023-03-29T08:48:28.172Z,1.88
2023-03-29T08:51:01.300Z,1.95
2023-03-29T08:53:35.153Z,2.02
2023-03-29T08:56:39.190Z,1.93
2023-03-29T08:59:19.131Z,1.95
2023-03-29T09:01:48.768Z,1.97
2023-03-29T09:04:18.334Z,1.81
2023-03-29T09:06:52.560Z,1.94
2023-03-29T09:09:23.545Z,2.11
2023-03-29T09:12:13.524Z,2.17
2023-03-29T09:14:40.497Z,2.05
2023-03-29T09:17:11.117Z,1.98
2023-03-29T09:19:53.584Z,1.87
2023-03-29T09:22:27.471Z,1.89
2023-03-29T09:25:13.620Z,2.03
2023-03-29T09:27:53.712Z,2.12
2023-03-29T09:30:31.667Z,2.15
2023-03-29T09:33:02.791Z,2.44
2023-03-29T09:35:54.508Z,2.87
2023-03-29T09:38:22.528Z,2.76
2023-03-29T09:40:51.869Z,2.44
2023-03-29T09:43:35.590Z,2.26
2023-03-29T09:46:15.257Z,2.03
2023-03-29T09:48:45.243Z,2.47
2023-03-29T09:51:12.544Z,3.20
2023-03-29T09:53:39.731Z,3.91
2023-03-29T09:56:32.981Z,4.03
2023-03-29T09:59:11.940Z,3.67
2023-03-29T10:01:41.222Z,3.77
2023-03-29T10:04:09.276Z,4.30
2023-03-29T10:06:49.094Z,5.06
2023-03-29T10:09:19.193Z,5.40
2023-03-29T10:11:47.563Z,4.86
2023-03-29T10:14:19.976Z,4.47
2023-03-29T10:16:53.891Z,4.45
2023-03-29T10:19:29.855Z,4.78
2023-03-29T10:21:58.689Z,5.06
2023-03-29T10:24:26.696Z,5.47
2023-03-29T10:26:56.680Z,6.14
2023-03-29T10:29:24.351Z,6.76
2023-03-29T10:31:51.578Z,6.47
2023-03-29T10:34:19.599Z,5.69
2023-03-29T10:36:57.048Z,5.41
2023-03-29T10:39:26.945Z,5.55
2023-03-29T10:41:54.083Z,5.61
2023-03-29T10:44:32.770Z,5.50
2023-03-29T10:47:14.295Z,5.49
2023-03-29T10:49:42.814Z,5.66
2023-03-29T10:52:12.664Z,6.08
2023-03-29T10:54:39.465Z,6.33
2023-03-29T10:57:11.137Z,6.80
2023-03-29T10:59:50.592Z,6.83
2023-03-29T11:02:17.969Z,6.18
2023-03-29T11:04:47.307Z,6.36
2023-03-29T11:07:26.599Z,6.47
2023-03-29T11:10:05.796Z,6.00
2023-03-29T11:12:43.259Z,5.51
2023-03-29T11:15:42.908Z,5.55
2023-03-29T11:18:21.754Z,5.71
2023-03-29T11:20:58.458Z,5.29
2023-03-29T11:23:43.792Z,5.07
2023-03-29T11:26:40.426Z,5.34
2023-03-29T11:29:10.535Z,5.65
2023-03-29T11:31:43.569Z,5.78
2023-03-29T11:34:29.392Z,5.55
2023-03-29T11:37:14.835Z,5.62
2023-03-29T11:39:53.919Z,5.94
2023-03-29T11:42:23.042Z,5.65
2023-03-29T11:44:54.641Z,4.93
2023-03-29T11:47:24.062Z,4.27
2023-03-29T11:49:56.944Z,4.03
2023-03-29T11:52:27.796Z,4.05
2023-03-29T11:54:55.157Z,4.28
2023-03-29T11:57:36.631Z,4.91
2023-03-29T12:00:18.422Z,5.64
2023-03-29T12:03:08.557Z,6.40
2023-03-29T12:05:39.225Z,7.33
2023-03-29T12:08:25.320Z,7.15
2023-03-29T12:11:11.538Z,6.86
2023-03-29T12:13:42.231Z,5.82
2023-03-29T12:16:25.966Z,5.09
2023-03-29T12:18:57.597Z,5.24
2023-03-29T12:21:26.135Z,5.61
2023-03-29T12:23:56.859Z,6.05
2023-03-29T12:26:39.926Z,6.37
2023-03-29T12:29:36.393Z,6.49
2023-03-29T12:32:21.335Z,6.21
2023-03-29T12:35:26.213Z,6.33
2023-03-29T12:38:16.569Z,6.65
2023-03-29T12:41:11.138Z,6.68
2023-03-29T12:44:14.506Z,6.93
2023-03-29T12:46:58.230Z,6.87
2023-03-29T12:49:29.246Z,6.70
2023-03-29T12:51:57.489Z,6.40
2023-03-29T12:54:28.141Z,6.26
2023-03-29T12:56:57.822Z,6.22
2023-03-29T12:59:25.322Z,5.92
2023-03-29T13:02:00.338Z,5.57
2023-03-29T13:04:37.132Z,5.11
2023-03-29T13:07:05.686Z,4.58
2023-03-29T13:09:37.268Z,4.67
2023-03-29T13:12:04.116Z,5.05
2023-03-29T13:14:32.485Z,5.40
2023-03-29T13:17:17.810Z,5.80
2023-03-29T13:20:01.267Z,6.13
2023-03-29T13:22:40.632Z,6.09
2023-03-29T13:25:16.752Z,5.89
2023-03-29T13:27:51.036Z,5.65
2023-03-29T13:30:27.360Z,5.24
2023-03-29T13:32:54.187Z,5.16
2023-03-29T13:35:44.828Z,5.33
2023-03-29T13:38:15.331Z,5.67
2023-03-29T13:40:44.348Z,5.90
2023-03-29T13:43:18.642Z,5.83
2023-03-29T13:45:57.669Z,5.68
2023-03-29T13:48:26.812Z,5.71
2023-03-29T13:50:53.829Z,6.03
2023-03-29T13:53:20.581Z,6.38
2023-03-29T13:55:50.630Z,6.63
2023-03-29T13:58:28.538Z,6.45
2023-03-29T14:01:00.792Z,6.32
2023-03-29T14:03:31.409Z,6.28
2023-03-29T14:06:02.396Z,6.33
2023-03-29T14:08:30.632Z,6.39
2023-03-29T14:11:00.754Z,6.52
2023-03-29T14:13:28.412Z,6.62
2023-03-29T14:15:58.964Z,6.55
2023-03-29T14:18:27.229Z,6.44
2023-03-29T14:20:55.658Z,6.48
2023-03-29T14:23:24.197Z,6.59
2023-03-29T14:25:51.352Z,6.74
2023-03-29T14:28:19.950Z,6.96
2023-03-29T14:30:47.608Z,6.82
2023-03-29T14:33:15.277Z,6.66
2023-03-29T14:35:42.321Z,6.65
2023-03-29T14:38:12.251Z,6.43
2023-03-29T14:40:39.404Z,6.42
2023-03-29T14:43:07.794Z,6.35
2023-03-29T14:45:34.943Z,6.38
2023-03-29T14:48:02.985Z,6.36
2023-03-29T14:50:30.946Z,6.37
2023-03-29T14:52:58.866Z,6.41
2023-03-29T14:55:26.839Z,6.36
2023-03-29T14:57:54.614Z,6.28
2023-03-29T15:00:27.597Z,6.25
2023-03-29T15:02:57.160Z,6.22
2023-03-29T15:05:38.356Z,6.14
2023-03-29T15:08:11.373Z,5.93
2023-03-29T15:10:38.763Z,5.85
2023-03-29T15:13:07.120Z,5.83
2023-03-29T15:15:36.438Z,5.87
2023-03-29T15:18:06.997Z,5.78
2023-03-29T15:20:36.232Z,5.65
2023-03-29T15:23:15.905Z,5.61
2023-03-29T15:25:52.081Z,5.62
2023-03-29T15:28:25.580Z,5.55
2023-03-29T15:31:07.166Z,5.56
2023-03-29T15:33:36.889Z,5.60
2023-03-29T15:36:05.456Z,5.52
2023-03-29T15:38:43.356Z,5.48
2023-03-29T15:41:13.035Z,5.36
2023-03-29T15:43:40.833Z,5.24
2023-03-29T15:46:08.433Z,5.34
2023-03-29T15:48:36.076Z,5.37
2023-03-29T15:51:06.135Z,5.39
2023-03-29T15:53:34.983Z,5.45
2023-03-29T15:56:03.516Z,5.49
2023-03-29T15:58:32.063Z,5.45
2023-03-29T16:01:11.596Z,5.48
2023-03-29T16:03:38.853Z,5.30
2023-03-29T16:06:06.113Z,5.23
2023-03-29T16:08:33.063Z,5.04
2023-03-29T16:11:00.321Z,4.93
2023-03-29T16:13:27.272Z,4.89
2023-03-29T16:15:54.220Z,4.78
2023-03-29T16:18:21.172Z,4.85
2023-03-29T16:20:48.122Z,4.88
2023-03-29T16:23:15.174Z,4.89
2023-03-29T16:25:42.943Z,4.77
2023-03-29T16:28:10.202Z,4.56
2023-03-29T16:30:38.347Z,4.38
2023-03-29T16:33:08.477Z,4.21
2023-03-29T16:35:39.495Z,4.08
2023-03-29T16:38:07.240Z,3.86
2023-03-29T16:40:34.418Z,3.66
2023-03-29T16:43:02.353Z,3.46
2023-03-29T16:45:29.636Z,3.27
2023-03-29T16:47:56.949Z,3.18
2023-03-29T16:50:24.076Z,3.02
2023-03-29T16:52:52.017Z,2.90
2023-03-29T16:55:19.176Z,2.80
2023-03-29T16:57:46.800Z,2.70
2023-03-29T17:00:15.417Z,2.60
2023-03-29T17:02:43.160Z,2.48
2023-03-29T17:05:11.349Z,2.36
2023-03-29T17:07:42.603Z,2.26
2023-03-29T17:10:13.147Z,2.16
2023-03-29T17:12:40.081Z,2.06
2023-03-29T17:15:07.961Z,1.97
2023-03-29T17:17:35.287Z,1.88
2023-03-29T17:20:05.955Z,1.75
2023-03-29T17:22:32.802Z,1.64
2023-03-29T17:24:59.954Z,1.51
2023-03-29T17:27:26.903Z,1.35
2023-03-29T17:29:53.772Z,1.23
2023-03-29T17:32:20.600Z,1.12
2023-03-29T17:34:47.867Z,0.99
2023-03-29T17:37:14.966Z,0.86
2023-03-29T17:39:42.892Z,0.72
2023-03-29T17:42:09.940Z,0.61
2023-03-29T17:44:36.890Z,0.54
2023-03-29T17:47:03.991Z,0.44
2023-03-29T17:49:31.414Z,0.36
2023-03-29T17:51:58.357Z,0.28
2023-03-29T17:54:25.552Z,0.18
2023-03-29T17:56:52.309Z,0.09
2023-03-29T17:59:19.214Z,-0.00
2023-03-29T18:01:46.302Z,-0.09
2023-03-29T18:04:13.317Z,-0.16
2023-03-29T18:06:40.403Z,-0.20
2023-03-29T18:09:07.298Z,-0.26
2023-03-29T18:11:35.916Z,-0.33
2023-03-29T18:14:05.526Z,-0.39
2023-03-29T18:16:32.746Z,-0.49
2023-03-29T18:19:02.549Z,-0.58
2023-03-29T18:21:29.754Z,-0.63
2023-03-29T18:23:57.235Z,-0.71
2023-03-29T18:26:24.781Z,-0.79
2023-03-29T18:28:52.045Z,-0.86
2023-03-29T18:31:19.527Z,-0.94
2023-03-29T18:33:47.291Z,-1.02
2023-03-29T18:36:14.678Z,-1.03
2023-03-29T18:38:42.973Z,-1.09
2023-03-29T18:41:11.711Z,-1.18
2023-03-29T18:43:39.914Z,-1.27
2023-03-29T18:46:07.499Z,-1.30
2023-03-29T18:48:38.295Z,-1.32
2023-03-29T18:51:09.238Z,-1.34
2023-03-29T18:53:36.706Z,-1.35
2023-03-29T18:56:04.753Z,-1.37
2023-03-29T18:58:32.154Z,-1.38
2023-03-29T19:01:05.454Z,-1.41
2023-03-29T19:03:33.932Z,-1.43
2023-03-29T19:06:01.801Z,-1.44
2023-03-29T19:08:29.047Z,-1.49
2023-03-29T19:11:07.265Z,-1.52
2023-03-29T19:13:34.970Z,-1.54
2023-03-29T19:16:05.546Z,-1.55
2023-03-29T19:18:33.449Z,-1.55
2023-03-29T19:21:00.490Z,-1.55
2023-03-29T19:23:27.843Z,-1.56
2023-03-29T19:25:56.030Z,-1.57
2023-03-29T19:28:23.893Z,-1.57
2023-03-29T19:30:50.905Z,-1.60
2023-03-29T19:33:18.028Z,-1.60
2023-03-29T19:35:46.336Z,-1.61
2023-03-29T19:38:13.238Z,-1.66
2023-03-29T19:40:43.658Z,-1.75
2023-03-29T19:43:15.929Z,-1.88
2023-03-29T19:45:43.402Z,-1.98
2023-03-29T19:50:40.165Z,-2.06
2023-03-29T19:53:07.149Z,-2.12
2023-03-29T19:55:34.362Z,-2.15
2023-03-29T19:58:01.318Z,-2.18
2023-03-29T20:00:28.046Z,-2.18
2023-03-29T20:02:56.199Z,-2.19
2023-03-29T20:05:23.614Z,-2.20
2023-03-29T20:07:50.967Z,-2.23
2023-03-29T20:10:17.924Z,-2.26
2023-03-29T20:12:47.116Z,-2.27
2023-03-29T20:15:14.169Z,-2.27
2023-03-29T20:17:41.260Z,-2.28
2023-03-29T20:20:09.986Z,-2.28
2023-03-29T20:22:37.595Z,-2.28
2023-03-29T20:25:04.847Z,-2.29
2023-03-29T20:27:31.710Z,-2.30
2023-03-29T20:29:58.640Z,-2.30
2023-03-29T20:32:25.508Z,-2.31
2023-03-29T20:34:52.742Z,-2.31
2023-03-29T20:37:22.437Z,-2.32
2023-03-29T20:39:49.407Z,-2.34
2023-03-29T20:42:16.181Z,-2.36
2023-03-29T20:44:49.958Z,-2.38
2023-03-29T20:47:18.553Z,-2.42
2023-03-29T20:49:45.604Z,-2.45
2023-03-29T20:52:17.188Z,-2.50
2023-03-29T20:54:45.029Z,-2.60
2023-03-29T20:57:16.328Z,-2.68
2023-03-29T20:59:43.855Z,-2.73
2023-03-29T21:02:16.242Z,-2.83
2023-03-29T21:04:44.496Z,-2.90
2023-03-29T21:07:11.450Z,-2.95
2023-03-29T21:09:39.527Z,-2.99
2023-03-29T21:12:06.890Z,-3.03
2023-03-29T21:14:33.736Z,-3.07
2023-03-29T21:17:01.106Z,-3.10
2023-03-29T21:19:28.661Z,-3.15
2023-03-29T21:21:55.562Z,-3.22
2023-03-29T21:24:22.455Z,-3.27
2023-03-29T21:26:49.511Z,-3.34
2023-03-29T21:29:16.432Z,-3.40
2023-03-29T21:31:43.405Z,-3.43
2023-03-29T21:34:10.568Z,-3.47
2023-03-29T21:36:37.927Z,-3.54
2023-03-29T21:39:05.301Z,-3.62
2023-03-29T21:41:32.546Z,-3.68
2023-03-29T21:43:59.847Z,-3.69
2023-03-29T21:46:26.910Z,-3.70
2023-03-29T21:48:54.129Z,-3.72
2023-03-29T21:51:21.167Z,-3.73
2023-03-29T21:53:48.361Z,-3.72
2023-03-29T21:56:15.587Z,-3.72
2023-03-29T21:58:42.634Z,-3.73
2023-03-29T22:01:10.231Z,-3.77
2023-03-29T22:03:38.076Z,-3.80
2023-03-29T22:06:09.463Z,-3.82
2023-03-29T22:08:38.424Z,-3.85
2023-03-29T22:11:08.337Z,-3.87
2023-03-29T22:13:35.496Z,-3.88
2023-03-29T22:16:03.755Z,-3.93
2023-03-29T22:18:52.184Z,-3.97
2023-03-29T22:21:23.466Z,-4.01
2023-03-29T22:23:52.171Z,-4.06
2023-03-29T22:26:21.063Z,-4.08
2023-03-29T22:28:47.906Z,-4.12
2023-03-29T22:31:16.602Z,-4.13
2023-03-29T22:33:43.754Z,-4.15
2023-03-29T22:36:15.212Z,-4.16
2023-03-29T22:38:42.559Z,-4.22
2023-03-29T22:41:09.720Z,-4.28
2023-03-29T22:43:37.277Z,-4.32
2023-03-29T22:46:04.736Z,-4.42
2023-03-29T22:48:31.743Z,-4.50
2023-03-29T22:50:59.159Z,-4.51
2023-03-29T22:53:26.820Z,-4.48
2023-03-29T22:55:54.384Z,-4.47
2023-03-29T22:58:21.438Z,-4.45
2023-03-29T23:00:48.494Z,-4.42
2023-03-29T23:03:15.548Z,-4.40
2023-03-29T23:05:48.639Z,-4.36
2023-03-29T23:08:16.097Z,-4.35
2023-03-29T23:10:44.893Z,-4.31
2023-03-29T23:13:13.168Z,-4.29
2023-03-29T23:15:47.508Z,-4.26
2023-03-29T23:18:17.916Z,-4.22
2023-03-29T23:20:46.718Z,-4.18
2023-03-29T23:23:15.272Z,-4.13
2023-03-29T23:25:46.138Z,-4.08
2023-03-29T23:28:13.716Z,-4.03
2023-03-29T23:30:41.162Z,-4.00
2023-03-29T23:33:10.148Z,-3.97
2023-03-29T23:35:37.336Z,-3.94
2023-03-29T23:38:05.297Z,-3.94
2023-03-29T23:40:32.874Z,-3.91
2023-03-29T23:42:59.966Z,-3.89
2023-03-29T23:45:27.683Z,-3.87
2023-03-29T23:47:54.777Z,-3.86
2023-03-29T23:50:22.097Z,-3.84
2023-03-29T23:52:50.987Z,-3.84
2023-03-29T23:55:19.064Z,-3.83
2023-03-29T23:57:46.118Z,-3.83
